メキシコシティ の空港の天気 - METARとTAF

メキシコ・シティ国際空港 ( MMMX / MEX ) - メキシコ メキシコシティ
飛行場実況気象(Metar)
観測時間01/18 14:44 CST (01/18 20:44 UTC)
風向・風速南東 4m/s
視程6450m
天気現象
全天の8割程度の雲 雲底高度 7620m
気温18℃
湿度28%
気圧1012.9hPa
METARMMMX 182044Z 14008KT 4SM BKN250 18/M01 A3028 NOSIG RMK SLP129 57034 959 8/008 HZY DSNT TCU NE E
過去の天気等 Google飛行場航空写真 Wunderground天気予報

過去48時間のMETAR

飛行場予報(TAF)
発表時間: 1/18 10:38 CST (1/18 16:38 UTC)
予報対象時間: 18日12時 CST ~ 19日18時 CST
風向・風速東北東 3m/s
視程10km以上
天気現象煙霧
全天の4割程度の雲 雲底高度 910m
全天の8割程度の雲 雲底高度 9,140m
18日20時 CST から
風向・風速東北東 3m/s
視程10km以上
天気現象煙霧
全天の8割程度の雲 雲底高度 9,140m
19日6時 CST から
風向・風速東 3m/s
視程3,220m
天気現象もや 煙霧
全天の8割程度の雲 雲底高度 7,920m
19日10時 CST から
風向・風速東北東 3m/s
視程6,440m
天気現象煙霧
全天の8割程度の雲 雲底高度 9,140m
19日12時 CST から
風向・風速東 4m/s
視程10km以上
全天の4割程度の雲 雲底高度 2,740m
全天の8割程度の雲 雲底高度 9,140m
TAF MMMX 181638Z 1818/1924 06006KT 6SM HZ SCT030 BKN300 TX20/1921Z TN04/1912Z
FM190200 06005KT 6SM HZ BKN300
FM191200 09005KT 2SM BR HZ BKN260
FM191600 06006KT 4SM HZ BKN300
FM191800 08008KT P6SM SCT090 BKN300